Roma, Italia

04:01 PM CEST del 02 Settembre 2014 (GMT +0200)
Near Vatican City | Change Station
CLOSE
Current Station
Stazione meteo personale
Location: Roma, LAZIO
Altitudine: 135 ft
Stazioni meteo nelle vicinanze
Avvisi attivi: Wind

Alt. 135 ft 41.90 °N, 12.44 °E | Updated 7 minutes ago

Scattered Clouds
Nubi sparse
81.1 °F
Sembra 80 °F
N
1.9
Vento Variabile Vento da SE
Gusts 3.6 mph

Oggi
Massima -- | Minima -- °F
--% Possibilità di precip.
Ieri
Massima -- | Minima -- °F
Precip. -- in
6:36 AM 7:42 PM
Primo quarto, 51% visible
Pressione 29.65 in
Visibilità 6.2 miglia
Nuvole Alcuni 1800 ft
Nubi sparse 3000 ft
Indice di calore 80 °F
Punto di rugiada 48 °F
Umidità 32%
Piovosità 0.00 in
Spessore del manto nevoso Non disponibile.
Raggi UV 4 fuori da 12
Polline Non disponibile.
Qualità dell'aria Non disponibile.
Flu Activity Non disponibile.
METAR LIRA 021345Z 34016KT 9999 FEW018 SCT030 25/12 Q1004

More Conditions Fewer Conditions

Pressione 29.65 in
Visibilità 6.2 miglia
Nuvole Alcuni 1800 ft
Nubi sparse 3000 ft
Indice di calore 80 °F
Punto di rugiada 48 °F
Umidità 32%
Piovosità 0.00 in
Spessore del manto nevoso Non disponibile.
Raggi UV 4 fuori da 12
Polline Non disponibile.
Qualità dell'aria Non disponibile.
Flu Activity Non disponibile.
METAR LIRA 021345Z 34016KT 9999 FEW018 SCT030 25/12 Q1004

More Conditions Fewer Conditions

10-Day Weather Forecast

Almanac

Astronomia

Sep. 02, 2014 Alba Tramonto
Ora attuale 06:36 CEST 19:42 CEST
Crepuscolo civile 06:07 CEST 20:10 CEST
Crepuscolo nautico 05:33 CEST 20:44 CEST
Crepuscolo astronomico 04:57 CEST 21:20 CEST
Luna 14:10 CEST Nessun tramonto lunare
Estensione della luce visibile 14h 02m
Lunghezza del giorno
13h 05m
Tomorrow will be 2m 42s shorter.
Primo quarto, 51% of the Moon is Illuminated
Oggi
Primo quarto
Set 8
Luna piena
Set 15
Ultimo quarto
Set 24
Nuovo
Ott 1
Primo quarto

Minime e massime di ieri

Massime Regione Minime Regione

Community

WunderPhotos

Upload Photos

1,749,670 foto caricate!

WunderBlogs® & News

Nearby

Qualità dell'aria

Not available.

Profondità neve

Not available.

Attività sismica

Città  Distanza Mag. Data & Ora
Non sono state riportate attività sismiche nelle vicinanze.
Minimo Magnitudo Mostrato è 2.5.

Temperature delle acque costiere

Località Temperatura
Nessun dato dalle stazioni

Stazioni meteo nelle vicinanze